createdAt,value
2022-11-04T00:03:06.081Z,15.82
2022-11-04T00:06:11.234Z,15.13
2022-11-04T00:08:57.823Z,16.30
2022-11-04T00:12:21.163Z,16.42
2022-11-04T00:14:57.073Z,15.98
2022-11-04T00:21:05.287Z,16.17
2022-11-04T00:27:53.578Z,16.80
2022-11-04T00:34:10.992Z,16.23
2022-11-04T00:43:25.520Z,16.15
2022-11-04T00:46:16.505Z,16.50
2022-11-04T00:49:59.443Z,16.90
2022-11-04T00:56:25.133Z,16.23
2022-11-04T00:59:38.238Z,16.55
2022-11-04T01:02:24.036Z,17.65
2022-11-04T01:05:36.493Z,16.05
2022-11-04T01:15:51.510Z,17.58
2022-11-04T01:17:56.337Z,17.85
2022-11-04T01:24:26.320Z,17.17
2022-11-04T01:27:59.752Z,16.48
2022-11-04T01:31:10.581Z,18.05
2022-11-04T01:37:39.302Z,16.60
2022-11-04T01:44:21.030Z,16.20
2022-11-04T01:47:22.898Z,15.82
2022-11-04T01:50:36.135Z,16.63
2022-11-04T01:53:55.464Z,17.60
2022-11-04T01:59:51.606Z,17.63
2022-11-04T02:03:26.767Z,16.23
2022-11-04T02:05:58.758Z,15.88
2022-11-04T02:12:03.177Z,16.23
2022-11-04T02:15:20.568Z,16.33
2022-11-04T02:18:16.801Z,15.52
2022-11-04T02:24:41.576Z,15.00
2022-11-04T02:31:40.042Z,14.75
2022-11-04T02:34:42.901Z,14.85
2022-11-04T02:40:58.953Z,14.80
2022-11-04T02:46:41.212Z,16.30
2022-11-04T02:49:15.962Z,15.40
2022-11-04T02:51:55.145Z,15.90
2022-11-04T02:54:51.329Z,15.27
2022-11-04T02:59:19.580Z,15.18
2022-11-04T03:07:43.846Z,15.13
2022-11-04T03:10:51.563Z,15.83
2022-11-04T03:13:36.841Z,15.23
2022-11-04T03:17:05.998Z,13.98
2022-11-04T03:23:30.150Z,14.23
2022-11-04T03:30:32.030Z,15.93
2022-11-04T03:33:33.021Z,15.95
2022-11-04T03:36:27.169Z,15.95
2022-11-04T03:39:28.569Z,16.85
2022-11-04T03:46:37.382Z,15.10
2022-11-04T03:49:03.712Z,15.05
2022-11-04T03:54:55.900Z,15.95
2022-11-04T03:55:29.316Z,15.27
2022-11-04T03:58:48.656Z,15.85
2022-11-04T04:12:00.956Z,15.70
2022-11-04T04:14:59.742Z,14.98
2022-11-04T04:21:21.706Z,15.73
2022-11-04T04:24:29.983Z,16.45
2022-11-04T04:27:29.399Z,15.90
2022-11-04T04:31:11.052Z,16.83
2022-11-04T04:34:20.245Z,15.75
2022-11-04T04:37:23.189Z,16.73
2022-11-04T04:40:48.335Z,15.82
2022-11-04T04:43:52.005Z,15.80
2022-11-04T04:49:38.315Z,16.27
2022-11-04T04:52:41.845Z,16.27
2022-11-04T04:56:04.071Z,16.17
2022-11-04T05:01:54.970Z,16.77
2022-11-04T05:04:40.031Z,15.88
2022-11-04T05:07:29.827Z,16.33
2022-11-04T05:13:16.163Z,15.77
2022-11-04T05:16:18.964Z,16.20
2022-11-04T05:19:04.020Z,14.93
2022-11-04T05:21:47.541Z,14.10
2022-11-04T05:27:52.855Z,15.65
2022-11-04T05:30:55.433Z,15.63
2022-11-04T05:33:43.926Z,15.50
2022-11-04T05:41:37.697Z,15.55
2022-11-04T05:43:08.309Z,15.23
2022-11-04T05:46:00.676Z,15.60
2022-11-04T05:48:42.168Z,14.63
2022-11-04T05:51:45.313Z,15.95
2022-11-04T05:54:44.725Z,15.90
2022-11-04T05:57:44.152Z,14.85
2022-11-04T06:00:36.204Z,15.80
2022-11-04T06:03:03.477Z,15.07
2022-11-04T06:05:35.352Z,14.27
2022-11-04T06:08:08.568Z,15.02
2022-11-04T06:10:38.148Z,15.60
2022-11-04T06:13:04.992Z,16.27
2022-11-04T06:15:59.447Z,16.83
2022-11-04T06:18:30.754Z,17.20
2022-11-04T06:21:33.927Z,16.38
2022-11-04T06:24:09.982Z,16.88
2022-11-04T06:26:38.005Z,16.27
2022-11-04T06:29:05.036Z,19.90
2022-11-04T06:31:58.901Z,14.93
2022-11-04T06:34:40.837Z,13.65
2022-11-04T06:37:12.188Z,14.38
2022-11-04T06:39:39.176Z,12.80
2022-11-04T06:42:14.933Z,14.48
2022-11-04T06:45:02.220Z,13.82
2022-11-04T06:47:31.451Z,15.13
2022-11-04T06:50:00.585Z,16.10
2022-11-04T06:52:42.664Z,13.82
2022-11-04T06:55:26.961Z,13.73
2022-11-04T06:57:57.307Z,13.88
2022-11-04T07:03:30.586Z,13.52
2022-11-04T07:05:59.857Z,13.25
2022-11-04T07:08:53.586Z,14.85
2022-11-04T07:11:29.290Z,14.90
2022-11-04T07:14:04.731Z,14.07
2022-11-04T07:16:46.079Z,13.20
2022-11-04T07:19:14.415Z,12.13
2022-11-04T07:21:43.743Z,12.80
2022-11-04T07:25:07.628Z,12.63
2022-11-04T07:27:22.598Z,12.38
2022-11-04T07:30:06.296Z,12.02
2022-11-04T07:32:49.050Z,13.60
2022-11-04T07:35:16.146Z,12.52
2022-11-04T07:38:12.507Z,15.02
2022-11-04T07:41:19.700Z,13.95
2022-11-04T07:44:25.676Z,14.70
2022-11-04T07:50:00.174Z,12.93
2022-11-04T07:52:27.144Z,13.07
2022-11-04T07:55:05.795Z,12.80
2022-11-04T07:57:55.371Z,12.60
2022-11-04T08:00:22.362Z,12.33
2022-11-04T08:02:52.300Z,12.38
2022-11-04T08:05:19.310Z,12.80
2022-11-04T08:07:46.258Z,11.52
2022-11-04T08:10:33.431Z,13.18
2022-11-04T08:13:00.312Z,11.73
2022-11-04T08:15:32.190Z,11.68
2022-11-04T08:18:03.881Z,11.35
2022-11-04T08:23:18.332Z,12.05
2022-11-04T08:25:47.620Z,11.38
2022-11-04T08:28:18.347Z,11.13
2022-11-04T08:31:02.084Z,11.30
2022-11-04T08:33:33.820Z,9.88
2022-11-04T08:36:03.726Z,10.70
2022-11-04T08:38:30.623Z,10.20
2022-11-04T08:41:37.496Z,10.32
2022-11-04T08:44:04.371Z,9.90
2022-11-04T08:46:44.534Z,9.85
2022-11-04T08:49:19.629Z,10.23
2022-11-04T08:51:57.586Z,10.18
2022-11-04T08:54:31.861Z,10.07
2022-11-04T08:57:16.716Z,10.38
2022-11-04T08:59:43.601Z,10.32
2022-11-04T09:02:17.992Z,9.57
2022-11-04T09:04:49.412Z,9.82
2022-11-04T09:07:18.661Z,8.75
2022-11-04T09:09:48.403Z,9.05
2022-11-04T09:12:17.703Z,9.60
2022-11-04T09:14:47.217Z,9.40
2022-11-04T09:17:14.160Z,9.73
2022-11-04T09:19:43.931Z,9.02
2022-11-04T09:22:10.850Z,9.73
2022-11-04T09:24:40.585Z,9.73
2022-11-04T09:27:18.980Z,10.25
2022-11-04T09:29:51.920Z,10.15
2022-11-04T09:32:18.872Z,9.68
2022-11-04T09:34:48.296Z,10.70
2022-11-04T09:37:26.547Z,8.90
2022-11-04T09:39:57.522Z,9.25
2022-11-04T09:42:42.942Z,8.98
2022-11-04T09:45:23.964Z,9.35
2022-11-04T09:47:55.598Z,8.50
2022-11-04T09:50:31.929Z,8.70
2022-11-04T09:53:10.824Z,9.95
2022-11-04T09:55:59.929Z,8.50
2022-11-04T09:58:37.090Z,8.98
2022-11-04T10:01:12.315Z,9.25
2022-11-04T10:04:06.590Z,9.20
2022-11-04T10:06:48.837Z,8.60
2022-11-04T10:09:40.796Z,8.93
2022-11-04T10:12:18.348Z,8.48
2022-11-04T10:14:46.807Z,9.18
2022-11-04T10:17:34.097Z,8.35
2022-11-04T10:20:06.525Z,7.97
2022-11-04T10:22:39.664Z,8.27
2022-11-04T10:25:18.657Z,8.18
2022-11-04T10:27:47.532Z,8.38
2022-11-04T10:30:21.184Z,7.82
2022-11-04T10:33:14.616Z,8.73
2022-11-04T10:35:47.029Z,9.10
2022-11-04T10:41:39.815Z,7.97
2022-11-04T10:44:08.974Z,8.13
2022-11-04T10:46:47.215Z,8.93
2022-11-04T10:49:38.632Z,8.02
2022-11-04T10:52:09.995Z,8.20
2022-11-04T10:54:51.712Z,8.43
2022-11-04T10:57:24.269Z,8.27
2022-11-04T10:59:59.396Z,8.52
2022-11-04T11:02:38.102Z,8.27
2022-11-04T11:05:24.865Z,8.70
2022-11-04T11:07:58.190Z,8.63
2022-11-04T11:10:28.236Z,9.23
2022-11-04T11:13:07.647Z,8.32
2022-11-04T11:15:37.157Z,9.35
2022-11-04T11:21:08.051Z,8.00
2022-11-04T11:23:39.169Z,8.60
2022-11-04T11:26:44.078Z,8.32
2022-11-04T11:29:12.120Z,8.05
2022-11-04T11:31:42.774Z,8.38
2022-11-04T11:34:39.418Z,8.63
2022-11-04T11:37:22.053Z,7.50
2022-11-04T11:39:50.515Z,8.05
2022-11-04T11:42:20.443Z,8.40
2022-11-04T11:44:53.363Z,8.52
2022-11-04T11:47:40.732Z,8.07
2022-11-04T11:50:23.298Z,8.23
2022-11-04T11:52:52.760Z,8.27
2022-11-04T11:55:27.421Z,7.87
2022-11-04T12:01:03.121Z,7.53
2022-11-04T12:09:56.923Z,7.05
2022-11-04T12:12:42.851Z,7.20
2022-11-04T12:15:52.336Z,7.15
2022-11-04T12:18:50.961Z,7.10
2022-11-04T12:21:33.534Z,6.90
2022-11-04T12:24:16.682Z,7.10
2022-11-04T12:27:00.601Z,8.15
2022-11-04T12:29:54.074Z,7.80
2022-11-04T12:32:49.785Z,7.15
2022-11-04T12:35:29.321Z,7.65
2022-11-04T12:38:36.199Z,8.55
2022-11-04T12:41:46.778Z,8.30
2022-11-04T12:44:30.322Z,7.70
2022-11-04T12:47:18.353Z,8.10
2022-11-04T12:50:14.148Z,7.70
2022-11-04T12:52:55.716Z,6.97
2022-11-04T12:55:31.448Z,7.28
2022-11-04T12:58:22.027Z,7.47
2022-11-04T13:00:59.635Z,7.22
2022-11-04T13:03:52.009Z,7.85
2022-11-04T13:06:34.586Z,7.43
2022-11-04T13:09:16.464Z,7.25
2022-11-04T13:11:57.984Z,8.25
2022-11-04T13:14:29.691Z,7.55
2022-11-04T13:17:00.633Z,7.05
2022-11-04T13:19:52.942Z,7.63
2022-11-04T13:22:37.330Z,7.50
2022-11-04T13:25:20.150Z,7.72
2022-11-04T13:27:48.254Z,7.22
2022-11-04T13:30:25.411Z,7.50
2022-11-04T13:33:29.168Z,8.68
2022-11-04T13:36:20.935Z,7.85
2022-11-04T13:39:04.232Z,7.60
2022-11-04T13:41:40.736Z,8.18
2022-11-04T13:44:26.798Z,7.63
2022-11-04T13:46:58.709Z,7.28
2022-11-04T13:49:30.498Z,8.50
2022-11-04T13:55:17.639Z,8.70
2022-11-04T13:58:03.637Z,8.68
2022-11-04T14:00:32.396Z,8.27
2022-11-04T14:03:01.493Z,8.93
2022-11-04T14:05:31.000Z,8.13
2022-11-04T14:08:03.590Z,7.65
2022-11-04T14:10:45.391Z,8.18
2022-11-04T14:13:32.568Z,8.73
2022-11-04T14:16:25.002Z,9.38
2022-11-04T14:18:55.408Z,8.85
2022-11-04T14:24:02.871Z,9.65
2022-11-04T14:26:43.540Z,11.52
2022-11-04T14:29:24.476Z,12.10
2022-11-04T14:31:55.110Z,11.90
2022-11-04T14:34:31.198Z,11.93
2022-11-04T14:37:00.584Z,12.82
2022-11-04T14:39:40.049Z,14.73
2022-11-04T14:42:07.176Z,14.20
2022-11-04T14:44:47.994Z,14.00
2022-11-04T14:47:33.238Z,13.18
2022-11-04T14:49:59.996Z,15.15
2022-11-04T14:53:12.434Z,15.10
2022-11-04T14:55:39.419Z,13.52
2022-11-04T14:58:24.845Z,13.88
2022-11-04T15:00:55.812Z,12.50
2022-11-04T15:06:11.639Z,11.60
2022-11-04T15:08:41.203Z,11.10
2022-11-04T15:11:17.140Z,12.30
2022-11-04T15:13:50.902Z,12.02
2022-11-04T15:16:26.940Z,11.55
2022-11-04T15:18:55.578Z,14.15
2022-11-04T15:21:25.274Z,13.52
2022-11-04T15:23:56.054Z,14.50
2022-11-04T15:26:31.688Z,15.00
2022-11-04T15:29:08.552Z,15.27
2022-11-04T15:31:37.645Z,14.77
2022-11-04T15:34:13.165Z,14.77
2022-11-04T15:36:42.348Z,15.25
2022-11-04T15:39:22.310Z,14.32
2022-11-04T15:42:11.173Z,14.88
2022-11-04T15:44:38.758Z,14.25
2022-11-04T15:47:17.722Z,15.07
2022-11-04T15:49:48.789Z,16.88
2022-11-04T15:52:21.691Z,16.85
2022-11-04T15:54:54.679Z,16.25
2022-11-04T15:57:30.840Z,16.92
2022-11-04T16:00:01.597Z,17.00
2022-11-04T16:02:29.716Z,16.15
2022-11-04T16:05:07.003Z,17.08
2022-11-04T16:07:38.887Z,16.42
2022-11-04T16:10:27.507Z,16.00
2022-11-04T16:13:02.725Z,15.02
2022-11-04T16:15:39.617Z,15.20
2022-11-04T16:18:20.959Z,15.68
2022-11-04T16:20:48.930Z,16.00
2022-11-04T16:23:22.841Z,16.25
2022-11-04T16:26:06.663Z,16.38
2022-11-04T16:28:38.415Z,16.02
2022-11-04T16:31:27.624Z,17.60
2022-11-04T16:33:54.963Z,16.08
2022-11-04T16:36:24.631Z,16.42
2022-11-04T16:38:59.587Z,18.17
2022-11-04T16:41:28.698Z,17.08
2022-11-04T16:43:56.167Z,17.48
2022-11-04T16:46:22.997Z,18.92
2022-11-04T16:48:53.702Z,17.95
2022-11-04T16:51:22.489Z,20.55
2022-11-04T16:53:51.284Z,19.67
2022-11-04T16:56:19.754Z,19.98
2022-11-04T16:58:46.903Z,22.27
2022-11-04T17:01:16.613Z,21.23
2022-11-04T17:03:43.685Z,20.02
2022-11-04T17:06:12.818Z,18.40
2022-11-04T17:08:41.962Z,19.25
2022-11-04T17:11:09.740Z,18.52
2022-11-04T17:13:37.213Z,18.05
2022-11-04T17:16:06.975Z,18.65
2022-11-04T17:18:34.837Z,16.75
2022-11-04T17:21:06.147Z,18.52
2022-11-04T17:23:33.178Z,17.02
2022-11-04T17:26:00.049Z,17.25
2022-11-04T17:28:31.537Z,16.98
2022-11-04T17:31:00.428Z,16.88
2022-11-04T17:33:31.121Z,16.00
2022-11-04T17:35:57.869Z,17.15
2022-11-04T17:38:25.041Z,19.00
2022-11-04T17:41:10.554Z,17.92
2022-11-04T17:43:56.083Z,17.35
2022-11-04T17:46:35.129Z,17.85
2022-11-04T17:49:05.500Z,17.08
2022-11-04T17:51:32.608Z,17.67
2022-11-04T17:53:59.405Z,17.02
2022-11-04T17:56:26.506Z,16.48
2022-11-04T17:58:56.352Z,17.35
2022-11-04T18:01:23.462Z,18.95
2022-11-04T18:03:53.836Z,18.15
2022-11-04T18:06:24.698Z,18.73
2022-11-04T18:08:55.854Z,18.77
2022-11-04T18:11:44.152Z,20.25
2022-11-04T18:14:16.681Z,18.90
2022-11-04T18:16:46.630Z,20.05
2022-11-04T18:19:13.993Z,18.33
2022-11-04T18:21:40.711Z,19.70
2022-11-04T18:24:08.161Z,19.75
2022-11-04T18:26:35.342Z,20.10
2022-11-04T18:29:02.678Z,20.80
2022-11-04T18:31:32.083Z,20.83
2022-11-04T18:34:00.289Z,19.67
2022-11-04T18:36:27.813Z,21.08
2022-11-04T18:38:57.033Z,19.98
2022-11-04T18:41:23.820Z,19.40
2022-11-04T18:43:50.579Z,19.27
2022-11-04T18:46:18.242Z,19.10
2022-11-04T18:48:50.191Z,19.70
2022-11-04T18:51:22.088Z,19.95
2022-11-04T18:53:49.875Z,18.85
2022-11-04T18:56:20.906Z,18.67
2022-11-04T18:58:47.797Z,20.15
2022-11-04T19:01:24.529Z,23.65
2022-11-04T19:03:51.588Z,26.65
2022-11-04T19:06:20.887Z,24.27
2022-11-04T19:08:50.392Z,21.05
2022-11-04T19:11:30.162Z,24.70
2022-11-04T19:14:03.859Z,23.95
2022-11-04T19:16:33.495Z,21.02
2022-11-04T19:19:04.865Z,19.67
2022-11-04T19:21:31.761Z,23.38
2022-11-04T19:24:02.000Z,24.05
2022-11-04T19:26:33.900Z,22.45
2022-11-04T19:29:01.074Z,22.13
2022-11-04T19:31:30.048Z,22.55
2022-11-04T19:34:05.086Z,20.50
2022-11-04T19:36:34.119Z,19.77
2022-11-04T19:39:01.288Z,18.70
2022-11-04T19:41:50.018Z,19.67
2022-11-04T19:44:18.733Z,20.48
2022-11-04T19:46:49.217Z,20.35
2022-11-04T19:51:43.657Z,19.83
2022-11-04T19:54:11.198Z,20.35
2022-11-04T19:56:40.910Z,18.45
2022-11-04T19:59:11.377Z,20.80
2022-11-04T20:04:05.515Z,23.02
2022-11-04T20:06:33.228Z,22.52
2022-11-04T20:09:05.900Z,27.02
2022-11-04T20:11:34.857Z,25.42
2022-11-04T20:14:07.461Z,26.88
2022-11-04T20:16:39.729Z,30.42
2022-11-04T20:19:06.903Z,33.40
2022-11-04T20:21:36.192Z,33.60
2022-11-04T20:24:14.583Z,31.83
2022-11-04T20:26:50.879Z,24.80
2022-11-04T20:29:17.818Z,24.52
2022-11-04T20:31:46.617Z,21.95
2022-11-04T20:34:18.368Z,21.17
2022-11-04T20:36:49.252Z,21.98
2022-11-04T20:39:18.090Z,20.25
2022-11-04T20:41:47.749Z,18.92
2022-11-04T20:44:27.614Z,19.52
2022-11-04T20:46:59.474Z,18.67
2022-11-04T20:49:33.412Z,19.40
2022-11-04T20:52:00.581Z,21.38
2022-11-04T20:54:31.986Z,23.73
2022-11-04T20:57:03.338Z,27.58
2022-11-04T20:59:30.328Z,25.60
2022-11-04T21:01:59.721Z,25.50
2022-11-04T21:04:36.599Z,24.23
2022-11-04T21:07:03.397Z,25.52
2022-11-04T21:09:30.203Z,25.83
2022-11-04T21:11:58.250Z,23.63
2022-11-04T21:14:24.996Z,25.90
2022-11-04T21:16:53.980Z,23.58
2022-11-04T21:19:25.964Z,24.70
2022-11-04T21:24:38.999Z,21.30
2022-11-04T21:27:06.401Z,22.30
2022-11-04T21:29:33.102Z,21.42
2022-11-04T21:31:59.873Z,22.20
2022-11-04T21:34:26.645Z,23.65
2022-11-04T21:36:53.413Z,23.23
2022-11-04T21:39:22.973Z,21.85
2022-11-04T21:41:51.969Z,25.77
2022-11-04T21:44:18.921Z,22.77
2022-11-04T21:46:46.418Z,24.65
2022-11-04T21:49:13.380Z,27.23
2022-11-04T21:51:42.660Z,24.15
2022-11-04T21:54:13.167Z,22.83
2022-11-04T21:59:06.944Z,21.88
2022-11-04T22:01:35.392Z,20.33
2022-11-04T22:04:03.451Z,20.85
2022-11-04T22:06:34.538Z,19.88
2022-11-04T22:09:05.946Z,20.45
2022-11-04T22:11:36.330Z,20.35
2022-11-04T22:16:33.767Z,20.92
2022-11-04T22:19:02.820Z,22.05
2022-11-04T22:21:30.851Z,21.45
2022-11-04T22:23:59.473Z,20.73
2022-11-04T22:26:31.863Z,20.13
2022-11-04T22:28:59.377Z,21.70
2022-11-04T22:31:34.782Z,18.98
2022-11-04T22:34:02.345Z,21.70
2022-11-04T22:36:31.751Z,20.73
2022-11-04T22:38:58.897Z,20.30
2022-11-04T22:41:29.142Z,20.40
2022-11-04T22:43:56.831Z,19.77
2022-11-04T22:46:35.134Z,20.10
2022-11-04T22:49:02.243Z,21.73
2022-11-04T22:51:31.216Z,21.85
2022-11-04T22:54:01.603Z,23.48
2022-11-04T22:56:36.024Z,23.60
2022-11-04T22:59:03.266Z,21.77
2022-11-04T23:01:31.614Z,21.73
2022-11-04T23:03:58.956Z,23.05
2022-11-04T23:06:25.767Z,22.17
2022-11-04T23:09:00.450Z,23.15
2022-11-04T23:11:48.043Z,22.83
2022-11-04T23:14:35.316Z,21.70
2022-11-04T23:17:21.625Z,21.05
2022-11-04T23:19:50.494Z,21.42
2022-11-04T23:22:36.000Z,21.20
2022-11-04T23:25:05.767Z,21.50
2022-11-04T23:28:04.874Z,21.55
2022-11-04T23:30:34.922Z,22.25
2022-11-04T23:33:06.815Z,21.25
2022-11-04T23:35:57.818Z,21.92
2022-11-04T23:38:25.511Z,21.35
2022-11-04T23:41:14.684Z,22.00
2022-11-04T23:43:41.929Z,22.20
2022-11-04T23:46:27.741Z,21.45
2022-11-04T23:49:12.665Z,20.10
2022-11-04T23:51:58.172Z,21.00
2022-11-04T23:54:43.855Z,21.02
2022-11-04T23:57:34.502Z,20.65
